createdAt,value
2022-10-15T00:01:12.289Z,21.20
2022-10-15T00:06:55.743Z,15.63
2022-10-15T00:09:44.558Z,10.53
2022-10-15T00:12:33.494Z,14.57
2022-10-15T00:15:22.356Z,15.37
2022-10-15T00:18:12.542Z,13.17
2022-10-15T00:21:01.392Z,15.77
2022-10-15T00:23:50.603Z,13.60
2022-10-15T00:26:39.467Z,14.67
2022-10-15T00:29:28.286Z,14.67
2022-10-15T00:32:17.103Z,15.97
2022-10-15T00:35:07.761Z,14.97
2022-10-15T00:37:56.680Z,15.47
2022-10-15T00:40:45.512Z,14.47
2022-10-15T00:43:38.090Z,15.17
2022-10-15T00:46:28.728Z,14.83
2022-10-15T00:49:19.484Z,14.03
2022-10-15T00:52:11.158Z,16.10
2022-10-15T00:55:03.807Z,15.97
2022-10-15T00:57:52.630Z,11.50
2022-10-15T01:00:41.503Z,10.00
2022-10-15T01:03:30.472Z,10.30
2022-10-15T01:06:19.306Z,10.17
2022-10-15T01:09:09.495Z,10.47
2022-10-15T01:11:58.859Z,8.20
2022-10-15T01:14:51.257Z,10.10
2022-10-15T01:17:42.507Z,11.23
2022-10-15T01:21:01.586Z,11.30
2022-10-15T01:24:10.153Z,10.87
2022-10-15T01:27:11.420Z,9.43
2022-10-15T01:30:05.772Z,9.60
2022-10-15T01:33:05.754Z,9.77
2022-10-15T01:35:56.188Z,9.33
2022-10-15T01:38:49.005Z,9.03
2022-10-15T01:41:41.240Z,10.10
2022-10-15T01:44:32.738Z,10.07
2022-10-15T01:47:23.153Z,10.60
2022-10-15T01:50:14.802Z,9.07
2022-10-15T01:53:05.353Z,11.00
2022-10-15T01:55:55.308Z,9.83
2022-10-15T01:58:45.038Z,10.50
2022-10-15T02:01:33.987Z,13.47
2022-10-15T02:04:24.377Z,15.47
2022-10-15T02:07:17.155Z,15.07
2022-10-15T02:10:09.883Z,15.63
2022-10-15T02:13:04.167Z,16.07
2022-10-15T02:15:57.812Z,16.60
2022-10-15T02:18:49.075Z,14.87
2022-10-15T02:21:40.729Z,11.50
2022-10-15T02:24:35.312Z,10.10
2022-10-15T02:27:24.137Z,14.67
2022-10-15T02:30:14.430Z,15.87
2022-10-15T02:33:03.420Z,15.70
2022-10-15T02:35:52.961Z,14.80
2022-10-15T02:38:42.742Z,15.30
2022-10-15T02:41:35.528Z,18.17
2022-10-15T02:44:24.345Z,17.70
2022-10-15T02:47:14.485Z,18.53
2022-10-15T02:50:03.340Z,14.03
2022-10-15T02:52:52.189Z,11.13
2022-10-15T02:55:41.349Z,14.27
2022-10-15T02:58:31.857Z,13.03
2022-10-15T03:01:20.785Z,13.90
2022-10-15T03:04:09.625Z,15.47
2022-10-15T03:06:58.444Z,15.03
2022-10-15T03:09:47.260Z,14.57
2022-10-15T03:12:36.403Z,13.97
2022-10-15T03:15:26.566Z,14.80
2022-10-15T03:18:15.412Z,18.03
2022-10-15T03:21:04.305Z,19.50
2022-10-15T03:23:53.106Z,18.83
2022-10-15T03:26:41.989Z,22.27
2022-10-15T03:29:30.837Z,20.80
2022-10-15T03:32:21.036Z,22.83
2022-10-15T03:35:10.100Z,22.40
2022-10-15T03:37:58.971Z,27.00
2022-10-15T03:40:48.170Z,33.17
2022-10-15T03:43:40.228Z,32.33
2022-10-15T03:46:31.604Z,35.07
2022-10-15T03:49:21.837Z,35.30
2022-10-15T03:52:10.679Z,36.13
2022-10-15T03:54:59.638Z,37.47
2022-10-15T03:57:48.469Z,37.47
2022-10-15T04:00:37.292Z,36.50
2022-10-15T04:03:26.180Z,35.90
2022-10-15T04:06:16.398Z,37.73
2022-10-15T04:09:05.299Z,38.47
2022-10-15T04:11:54.207Z,38.07
2022-10-15T04:14:43.311Z,34.07
2022-10-15T04:17:32.142Z,34.63
2022-10-15T04:20:21.008Z,39.03
2022-10-15T04:23:11.185Z,41.10
2022-10-15T04:26:01.039Z,40.67
2022-10-15T04:28:50.633Z,37.60
2022-10-15T04:31:39.495Z,38.23
2022-10-15T04:34:28.593Z,38.33
2022-10-15T04:37:17.425Z,41.57
2022-10-15T04:40:08.595Z,38.30
2022-10-15T04:42:57.475Z,37.07
2022-10-15T04:45:46.337Z,38.70
2022-10-15T04:48:37.723Z,39.97
2022-10-15T04:51:29.270Z,41.63
2022-10-15T04:54:18.210Z,39.30
2022-10-15T04:57:08.483Z,39.03
2022-10-15T04:59:57.977Z,38.30
2022-10-15T05:02:46.942Z,37.70
2022-10-15T05:05:35.787Z,40.20
2022-10-15T05:08:25.118Z,38.17
2022-10-15T05:11:15.569Z,36.10
2022-10-15T05:14:06.408Z,36.70
2022-10-15T05:16:55.344Z,36.40
2022-10-15T05:19:44.210Z,34.03
2022-10-15T05:22:33.021Z,34.20
2022-10-15T05:25:21.872Z,35.10
2022-10-15T05:28:10.703Z,31.67
2022-10-15T05:31:05.125Z,30.17
2022-10-15T05:33:54.612Z,30.00
2022-10-15T05:36:43.442Z,30.40
2022-10-15T05:39:32.245Z,31.03
2022-10-15T05:42:21.058Z,30.57
2022-10-15T05:45:10.359Z,33.40
2022-10-15T05:48:00.539Z,32.07
2022-10-15T05:50:49.349Z,30.03
2022-10-15T05:53:38.564Z,28.90
2022-10-15T05:56:28.085Z,30.43
2022-10-15T05:59:16.924Z,29.30
2022-10-15T06:02:05.835Z,30.10
2022-10-15T06:04:56.331Z,32.73
2022-10-15T06:07:45.133Z,30.77
2022-10-15T06:10:36.737Z,31.80
2022-10-15T06:16:19.307Z,33.00
2022-10-15T06:19:11.773Z,32.10
2022-10-15T06:22:01.900Z,32.97
2022-10-15T06:24:50.756Z,31.53
2022-10-15T06:27:39.594Z,34.67
2022-10-15T06:30:28.548Z,34.00
2022-10-15T06:33:17.404Z,29.13
2022-10-15T06:36:07.384Z,33.00
2022-10-15T06:38:58.129Z,33.23
2022-10-15T06:41:46.978Z,32.43
2022-10-15T06:44:35.792Z,30.67
2022-10-15T06:47:25.032Z,29.40
2022-10-15T06:50:14.388Z,29.40
2022-10-15T06:53:03.527Z,25.70
2022-10-15T06:55:53.772Z,24.17
2022-10-15T06:58:43.246Z,27.40
2022-10-15T07:01:32.574Z,34.37
2022-10-15T07:04:21.534Z,21.73
2022-10-15T07:07:10.491Z,22.47
2022-10-15T07:09:59.363Z,22.00
2022-10-15T07:12:49.548Z,23.23
2022-10-15T07:15:38.404Z,21.67
2022-10-15T07:18:27.252Z,19.83
2022-10-15T07:21:16.082Z,18.77
2022-10-15T07:24:05.105Z,21.10
2022-10-15T07:26:53.916Z,21.27
2022-10-15T07:29:44.161Z,20.63
2022-10-15T07:32:33.005Z,21.23
2022-10-15T07:35:21.865Z,19.60
2022-10-15T07:38:10.773Z,20.30
2022-10-15T07:41:00.159Z,21.13
2022-10-15T07:43:49.036Z,21.23
2022-10-15T07:46:39.193Z,21.23
2022-10-15T07:49:28.023Z,18.83
2022-10-15T07:52:16.843Z,18.00
2022-10-15T07:55:05.980Z,17.40
2022-10-15T07:57:58.742Z,18.73
2022-10-15T08:00:47.773Z,18.87
2022-10-15T08:03:38.206Z,16.30
2022-10-15T08:06:27.043Z,16.37
2022-10-15T08:09:15.882Z,17.70
2022-10-15T08:12:06.670Z,16.50
2022-10-15T08:14:55.522Z,17.43
2022-10-15T08:17:44.337Z,17.50
2022-10-15T08:20:34.535Z,17.03
2022-10-15T08:23:23.361Z,17.70
2022-10-15T08:26:12.253Z,20.50
2022-10-15T08:29:01.150Z,16.93
2022-10-15T08:31:51.004Z,16.20
2022-10-15T08:34:39.886Z,15.33
2022-10-15T08:37:30.156Z,17.13
2022-10-15T08:40:19.174Z,14.30
2022-10-15T08:43:08.072Z,15.87
2022-10-15T08:45:58.953Z,17.90
2022-10-15T08:48:49.423Z,15.50
2022-10-15T08:51:42.134Z,15.20
2022-10-15T08:54:35.344Z,13.60
2022-10-15T08:57:38.516Z,11.97
2022-10-15T09:00:35.938Z,12.37
2022-10-15T09:03:38.285Z,8.90
2022-10-15T09:06:29.177Z,9.63
2022-10-15T09:09:21.488Z,9.60
2022-10-15T09:12:20.514Z,10.70
2022-10-15T09:15:12.034Z,10.10
2022-10-15T09:18:00.828Z,9.97
2022-10-15T09:20:50.258Z,7.93
2022-10-15T09:23:39.106Z,9.50
2022-10-15T09:26:29.601Z,9.40
2022-10-15T09:29:24.447Z,9.23
2022-10-15T09:32:17.229Z,8.23
2022-10-15T09:35:13.166Z,9.43
2022-10-15T09:38:07.026Z,7.70
2022-10-15T09:41:02.407Z,7.57
2022-10-15T09:43:52.003Z,7.80
2022-10-15T09:46:46.225Z,7.65
2022-10-15T09:49:36.516Z,7.55
2022-10-15T09:52:28.790Z,6.65
2022-10-15T09:55:26.486Z,7.55
2022-10-15T09:58:18.291Z,6.90
2022-10-15T10:01:07.677Z,5.97
2022-10-15T10:04:11.904Z,4.77
2022-10-15T10:07:02.337Z,4.57
2022-10-15T10:09:52.612Z,3.30
2022-10-15T10:12:45.310Z,3.60
2022-10-15T10:15:35.150Z,2.93
2022-10-15T10:18:25.431Z,2.55
2022-10-15T10:21:24.229Z,3.00
2022-10-15T10:24:28.338Z,2.20
2022-10-15T10:27:20.177Z,2.22
2022-10-15T10:30:09.519Z,1.67
2022-10-15T10:33:00.130Z,1.70
2022-10-15T10:35:52.446Z,1.30
2022-10-15T10:38:42.700Z,1.50
2022-10-15T10:41:50.842Z,1.63
2022-10-15T10:44:41.138Z,1.33
2022-10-15T10:47:39.370Z,1.30
2022-10-15T10:50:29.832Z,1.10
2022-10-15T10:53:22.998Z,1.20
2022-10-15T10:56:15.444Z,0.90
2022-10-15T10:59:06.079Z,0.90
2022-10-15T11:01:56.591Z,0.90
2022-10-15T11:04:45.474Z,0.93
2022-10-15T11:07:41.624Z,1.37
2022-10-15T11:10:35.050Z,1.20
2022-10-15T11:13:34.948Z,0.90
2022-10-15T11:16:31.457Z,1.00
2022-10-15T11:19:54.522Z,1.13
2022-10-15T11:22:44.121Z,0.73
2022-10-15T11:25:36.485Z,0.90
2022-10-15T11:28:31.883Z,0.90
2022-10-15T11:31:26.528Z,0.70
2022-10-15T11:34:22.248Z,0.70
2022-10-15T11:37:20.547Z,0.77
2022-10-15T11:40:15.980Z,1.33
2022-10-15T11:43:08.987Z,0.80
2022-10-15T11:46:02.028Z,0.90
2022-10-15T11:49:00.299Z,1.10
2022-10-15T11:51:54.466Z,1.00
2022-10-15T11:54:44.932Z,0.80
2022-10-15T11:57:36.041Z,0.60
2022-10-15T12:00:31.184Z,0.70
2022-10-15T12:03:23.683Z,0.80
2022-10-15T12:06:17.599Z,0.80
2022-10-15T12:09:08.066Z,1.10
2022-10-15T12:12:02.144Z,0.70
2022-10-15T12:14:54.945Z,0.97
2022-10-15T12:17:47.887Z,0.90
2022-10-15T12:20:36.972Z,1.13
2022-10-15T12:23:28.340Z,0.73
2022-10-15T12:26:33.795Z,1.10
2022-10-15T12:29:23.669Z,1.03
2022-10-15T12:32:22.359Z,1.30
2022-10-15T12:38:22.058Z,1.20
2022-10-15T12:41:13.251Z,1.83
2022-10-15T12:44:06.916Z,3.17
2022-10-15T12:46:55.827Z,3.07
2022-10-15T12:49:48.857Z,1.60
2022-10-15T12:52:57.779Z,1.07
2022-10-15T12:55:46.631Z,0.90
2022-10-15T12:58:37.535Z,1.20
2022-10-15T13:01:30.493Z,1.00
2022-10-15T13:04:20.062Z,0.90
2022-10-15T13:07:08.910Z,1.00
2022-10-15T13:09:57.931Z,1.20
2022-10-15T13:12:46.829Z,0.60
2022-10-15T13:15:37.034Z,0.80
2022-10-15T13:18:26.372Z,0.80
2022-10-15T13:21:15.201Z,1.13
2022-10-15T13:24:04.015Z,0.80
2022-10-15T13:26:52.846Z,0.60
2022-10-15T13:29:41.670Z,0.70
2022-10-15T13:32:33.062Z,0.90
2022-10-15T13:35:24.206Z,0.80
2022-10-15T13:38:20.707Z,1.00
2022-10-15T13:41:09.717Z,0.70
2022-10-15T13:44:00.950Z,0.73
2022-10-15T13:46:49.786Z,0.90
2022-10-15T13:49:39.966Z,0.63
2022-10-15T13:52:28.879Z,1.00
2022-10-15T13:55:25.574Z,0.80
2022-10-15T13:58:21.245Z,0.70
2022-10-15T14:01:15.909Z,0.70
2022-10-15T14:04:05.528Z,0.60
2022-10-15T14:09:50.503Z,0.80
2022-10-15T14:12:39.363Z,0.90
2022-10-15T14:15:41.973Z,0.70
2022-10-15T14:18:35.550Z,0.80
2022-10-15T14:21:28.882Z,0.80
2022-10-15T14:24:21.693Z,1.00
2022-10-15T14:27:15.640Z,1.30
2022-10-15T14:30:07.451Z,1.47
2022-10-15T14:32:57.458Z,0.80
2022-10-15T14:35:46.333Z,0.90
2022-10-15T14:38:35.397Z,0.87
2022-10-15T14:41:27.786Z,0.70
2022-10-15T14:44:20.733Z,1.10
2022-10-15T14:47:16.303Z,1.20
2022-10-15T14:50:06.147Z,1.10
2022-10-15T14:52:55.743Z,1.20
2022-10-15T14:55:45.194Z,0.90
2022-10-15T14:58:35.770Z,0.80
2022-10-15T15:01:24.948Z,1.10
2022-10-15T15:04:28.659Z,1.00
2022-10-15T15:07:18.928Z,0.90
2022-10-15T15:10:08.831Z,1.20
2022-10-15T15:12:58.449Z,1.30
2022-10-15T15:15:48.838Z,1.30
2022-10-15T15:18:37.656Z,1.10
2022-10-15T15:21:26.499Z,1.67
2022-10-15T15:24:15.376Z,1.40
2022-10-15T15:27:04.173Z,1.40
2022-10-15T15:29:53.244Z,1.73
2022-10-15T15:32:43.457Z,2.30
2022-10-15T15:35:36.873Z,1.63
2022-10-15T15:38:30.684Z,1.00
2022-10-15T15:41:20.452Z,1.27
2022-10-15T15:44:13.049Z,1.10
2022-10-15T15:47:01.844Z,1.47
2022-10-15T15:49:52.029Z,1.10
2022-10-15T15:52:43.583Z,1.17
2022-10-15T15:55:32.635Z,1.77
2022-10-15T15:58:21.559Z,1.40
2022-10-15T16:01:10.421Z,1.40
2022-10-15T16:03:59.254Z,1.40
2022-10-15T16:06:49.645Z,1.33
2022-10-15T16:09:38.885Z,1.30
2022-10-15T16:12:27.721Z,1.80
2022-10-15T16:15:16.552Z,1.63
2022-10-15T16:18:05.461Z,1.30
2022-10-15T16:20:54.396Z,1.60
2022-10-15T16:23:44.583Z,1.80
2022-10-15T16:26:33.428Z,1.50
2022-10-15T16:29:22.281Z,1.70
2022-10-15T16:32:11.421Z,1.13
2022-10-15T16:35:00.297Z,1.70
2022-10-15T16:37:49.481Z,1.60
2022-10-15T16:40:39.850Z,1.40
2022-10-15T16:43:28.743Z,2.27
2022-10-15T16:46:17.847Z,2.20
2022-10-15T16:49:06.702Z,1.90
2022-10-15T16:51:55.655Z,1.90
2022-10-15T16:54:44.465Z,1.37
2022-10-15T16:57:34.658Z,2.43
2022-10-15T17:00:23.485Z,2.30
2022-10-15T17:03:12.289Z,2.50
2022-10-15T17:06:01.783Z,2.30
2022-10-15T17:08:51.825Z,2.53
2022-10-15T17:11:41.908Z,1.87
2022-10-15T17:14:32.071Z,2.20
2022-10-15T17:17:20.919Z,2.97
2022-10-15T17:20:10.304Z,3.80
2022-10-15T17:22:59.146Z,4.87
2022-10-15T17:25:47.979Z,4.20
2022-10-15T17:28:36.881Z,6.47
2022-10-15T17:31:27.842Z,5.00
2022-10-15T17:34:16.914Z,5.37
2022-10-15T17:37:05.766Z,5.33
2022-10-15T17:39:58.088Z,4.07
2022-10-15T17:42:46.955Z,5.17
2022-10-15T17:45:35.791Z,4.20
2022-10-15T17:48:26.066Z,4.53
2022-10-15T17:51:16.686Z,3.13
2022-10-15T17:54:05.565Z,3.27
2022-10-15T17:56:54.400Z,3.50
2022-10-15T17:59:45.346Z,4.57
2022-10-15T18:02:36.351Z,3.10
2022-10-15T18:05:26.598Z,2.50
2022-10-15T18:08:15.466Z,3.13
2022-10-15T18:11:04.522Z,2.50
2022-10-15T18:13:53.705Z,2.27
2022-10-15T18:16:43.236Z,2.50
2022-10-15T18:19:32.226Z,3.00
2022-10-15T18:22:22.405Z,3.00
2022-10-15T18:25:11.858Z,2.80
2022-10-15T18:28:00.997Z,2.43
2022-10-15T18:30:49.859Z,2.83
2022-10-15T18:33:39.928Z,2.03
2022-10-15T18:36:29.705Z,1.70
2022-10-15T18:39:20.036Z,1.90
2022-10-15T18:42:09.166Z,1.57
2022-10-15T18:44:58.011Z,1.60
2022-10-15T18:47:46.861Z,1.70
2022-10-15T18:50:36.101Z,1.57
2022-10-15T18:53:25.990Z,1.30
2022-10-15T18:56:16.175Z,1.50
2022-10-15T18:59:05.001Z,2.13
2022-10-15T19:01:53.917Z,2.00
2022-10-15T19:04:42.775Z,2.10
2022-10-15T19:07:31.813Z,2.20
2022-10-15T19:10:20.702Z,3.17
2022-10-15T19:13:10.861Z,2.30
2022-10-15T19:16:01.679Z,2.30
2022-10-15T19:18:50.607Z,2.70
2022-10-15T19:21:39.456Z,2.00
2022-10-15T19:24:28.517Z,2.10
2022-10-15T19:27:17.538Z,2.87
2022-10-15T19:30:08.566Z,1.90
2022-10-15T19:32:57.422Z,2.50
2022-10-15T19:35:46.441Z,3.07
2022-10-15T19:38:35.378Z,3.23
2022-10-15T19:41:24.172Z,3.03
2022-10-15T19:44:13.909Z,2.60
2022-10-15T19:47:04.123Z,3.10
2022-10-15T19:49:54.315Z,3.57
2022-10-15T19:52:43.109Z,4.13
2022-10-15T19:55:31.906Z,4.70
2022-10-15T19:58:21.059Z,3.70
2022-10-15T20:01:09.985Z,3.80
2022-10-15T20:04:04.774Z,4.63
2022-10-15T20:06:55.273Z,5.70
2022-10-15T20:09:44.106Z,5.00
2022-10-15T20:12:32.939Z,5.27
2022-10-15T20:15:21.771Z,6.10
2022-10-15T20:18:10.625Z,6.43
2022-10-15T20:21:00.910Z,8.50
2022-10-15T20:23:49.770Z,9.10
2022-10-15T20:26:38.622Z,8.70
2022-10-15T20:29:27.535Z,8.43
2022-10-15T20:32:30.226Z,8.50
2022-10-15T20:35:22.944Z,8.30
2022-10-15T20:38:13.337Z,8.33
2022-10-15T20:41:02.345Z,7.13
2022-10-15T20:43:53.814Z,7.67
2022-10-15T20:46:44.311Z,8.40
2022-10-15T20:49:36.060Z,8.83
2022-10-15T20:52:25.546Z,9.07
2022-10-15T20:55:16.087Z,8.87
2022-10-15T20:58:04.990Z,7.60
2022-10-15T21:00:53.862Z,8.63
2022-10-15T21:03:42.691Z,7.80
2022-10-15T21:06:31.625Z,6.57
2022-10-15T21:09:20.456Z,6.83
2022-10-15T21:12:10.687Z,6.63
2022-10-15T21:14:59.556Z,5.70
2022-10-15T21:17:48.350Z,5.67
2022-10-15T21:20:37.199Z,4.23
2022-10-15T21:23:26.110Z,4.20
2022-10-15T21:26:15.695Z,4.10
2022-10-15T21:29:05.928Z,3.90
2022-10-15T21:31:54.777Z,3.60
2022-10-15T21:34:43.625Z,4.00
2022-10-15T21:37:34.529Z,4.13
2022-10-15T21:40:23.652Z,3.30
2022-10-15T21:43:21.348Z,3.90
2022-10-15T21:46:12.745Z,3.30
2022-10-15T21:49:02.933Z,3.20
2022-10-15T21:51:51.735Z,3.40
2022-10-15T21:54:40.658Z,3.57
2022-10-15T21:57:29.442Z,2.77
2022-10-15T22:00:18.343Z,2.47
2022-10-15T22:03:08.583Z,3.30
2022-10-15T22:06:00.017Z,2.43
2022-10-15T22:08:49.139Z,2.83
2022-10-15T22:11:38.689Z,2.83
2022-10-15T22:14:27.584Z,3.20
2022-10-15T22:17:16.549Z,2.70
2022-10-15T22:20:07.455Z,3.03
2022-10-15T22:22:56.317Z,3.80
2022-10-15T22:25:46.270Z,3.57
2022-10-15T22:28:35.134Z,3.90
2022-10-15T22:31:24.983Z,3.07
2022-10-15T22:34:13.857Z,3.77
2022-10-15T22:37:04.243Z,4.37
2022-10-15T22:39:53.072Z,4.30
2022-10-15T22:42:42.235Z,4.23
2022-10-15T22:45:31.903Z,3.97
2022-10-15T22:48:20.708Z,5.77
2022-10-15T22:51:10.548Z,4.87
2022-10-15T22:54:01.396Z,4.50
2022-10-15T22:56:50.537Z,3.50
2022-10-15T22:59:41.758Z,4.20
2022-10-15T23:02:30.637Z,4.47
2022-10-15T23:05:19.470Z,4.90
2022-10-15T23:08:08.383Z,5.17
2022-10-15T23:10:58.598Z,5.10
2022-10-15T23:13:48.013Z,5.27
2022-10-15T23:16:37.951Z,5.80
2022-10-15T23:19:26.789Z,5.10
2022-10-15T23:22:15.578Z,5.60
2022-10-15T23:25:04.946Z,6.20
2022-10-15T23:27:55.134Z,5.10
2022-10-15T23:30:44.199Z,7.40
2022-10-15T23:33:33.090Z,7.30
2022-10-15T23:36:22.346Z,5.87
2022-10-15T23:39:14.107Z,7.00
2022-10-15T23:42:02.960Z,6.70
2022-10-15T23:44:53.153Z,7.23
2022-10-15T23:47:42.023Z,5.90
2022-10-15T23:50:35.729Z,5.40
2022-10-15T23:53:24.571Z,5.77
2022-10-15T23:56:13.785Z,6.53
2022-10-15T23:59:02.619Z,5.97
